sensor_id;sensor_type;location;lat;lon;timestamp;temperature;humidity
3406;DHT22;10008;48.682;9.016;2022-12-07T00:01:38;3.90;99.90
3406;DHT22;10008;48.682;9.016;2022-12-07T00:04:06;3.80;99.90
3406;DHT22;10008;48.682;9.016;2022-12-07T00:08:58;3.90;99.90
3406;DHT22;10008;48.682;9.016;2022-12-07T00:11:25;3.90;99.90
3406;DHT22;10008;48.682;9.016;2022-12-07T00:13:53;4.10;99.90
3406;DHT22;10008;48.682;9.016;2022-12-07T00:16:20;3.90;99.90
3406;DHT22;10008;48.682;9.016;2022-12-07T00:18:46;4.40;99.90
3406;DHT22;10008;48.682;9.016;2022-12-07T00:21:14;4.10;99.90
3406;DHT22;10008;48.682;9.016;2022-12-07T00:23:42;4.00;99.90
3406;DHT22;10008;48.682;9.016;2022-12-07T00:26:13;5.00;99.90
3406;DHT22;10008;48.682;9.016;2022-12-07T00:28:39;4.00;99.90
3406;DHT22;10008;48.682;9.016;2022-12-07T00:31:11;4.10;99.90
3406;DHT22;10008;48.682;9.016;2022-12-07T00:33:37;4.10;99.90
3406;DHT22;10008;48.682;9.016;2022-12-07T00:36:07;4.10;99.90
3406;DHT22;10008;48.682;9.016;2022-12-07T00:38:34;4.10;99.90
3406;DHT22;10008;48.682;9.016;2022-12-07T00:41:03;3.90;99.90
3406;DHT22;10008;48.682;9.016;2022-12-07T00:43:29;4.00;99.90
3406;DHT22;10008;48.682;9.016;2022-12-07T00:45:55;4.00;99.90
3406;DHT22;10008;48.682;9.016;2022-12-07T00:48:21;4.00;99.90
3406;DHT22;10008;48.682;9.016;2022-12-07T00:50:47;4.00;99.90
3406;DHT22;10008;48.682;9.016;2022-12-07T00:53:13;4.10;99.90
3406;DHT22;10008;48.682;9.016;2022-12-07T00:55:39;4.10;99.90
3406;DHT22;10008;48.682;9.016;2022-12-07T00:58:05;4.00;99.90
3406;DHT22;10008;48.682;9.016;2022-12-07T01:00:31;3.90;99.90
3406;DHT22;10008;48.682;9.016;2022-12-07T01:02:58;3.90;99.90
3406;DHT22;10008;48.682;9.016;2022-12-07T01:05:23;3.90;99.90
3406;DHT22;10008;48.682;9.016;2022-12-07T01:07:49;4.00;99.90
3406;DHT22;10008;48.682;9.016;2022-12-07T01:10:15;4.00;99.90
3406;DHT22;10008;48.682;9.016;2022-12-07T01:12:41;4.10;99.90
3406;DHT22;10008;48.682;9.016;2022-12-07T01:15:07;4.10;99.90
3406;DHT22;10008;48.682;9.016;2022-12-07T01:17:33;4.20;99.90
3406;DHT22;10008;48.682;9.016;2022-12-07T01:19:59;4.10;99.90
3406;DHT22;10008;48.682;9.016;2022-12-07T01:22:25;5.10;99.90
3406;DHT22;10008;48.682;9.016;2022-12-07T01:24:51;4.10;99.90
3406;DHT22;10008;48.682;9.016;2022-12-07T01:27:17;4.20;99.90
3406;DHT22;10008;48.682;9.016;2022-12-07T01:29:43;4.90;99.90
3406;DHT22;10008;48.682;9.016;2022-12-07T01:32:09;4.20;99.90
3406;DHT22;10008;48.682;9.016;2022-12-07T01:34:35;4.10;99.90
3406;DHT22;10008;48.682;9.016;2022-12-07T01:37:01;4.10;99.90
3406;DHT22;10008;48.682;9.016;2022-12-07T01:39:27;4.50;99.90
3406;DHT22;10008;48.682;9.016;2022-12-07T01:41:53;4.10;99.90
3406;DHT22;10008;48.682;9.016;2022-12-07T01:44:22;4.10;99.90
3406;DHT22;10008;48.682;9.016;2022-12-07T01:46:53;4.00;99.90
3406;DHT22;10008;48.682;9.016;2022-12-07T01:49:53;4.10;99.90
3406;DHT22;10008;48.682;9.016;2022-12-07T01:52:28;4.10;99.90
3406;DHT22;10008;48.682;9.016;2022-12-07T01:55:00;4.10;99.90
3406;DHT22;10008;48.682;9.016;2022-12-07T01:57:27;4.10;99.90
3406;DHT22;10008;48.682;9.016;2022-12-07T01:59:53;4.70;99.90
3406;DHT22;10008;48.682;9.016;2022-12-07T02:02:38;4.00;99.90
3406;DHT22;10008;48.682;9.016;2022-12-07T02:05:07;4.00;99.90
3406;DHT22;10008;48.682;9.016;2022-12-07T02:07:36;4.00;99.90
3406;DHT22;10008;48.682;9.016;2022-12-07T02:10:23;4.10;99.90
3406;DHT22;10008;48.682;9.016;2022-12-07T02:13:03;4.00;99.90
3406;DHT22;10008;48.682;9.016;2022-12-07T02:16:08;4.00;99.90
3406;DHT22;10008;48.682;9.016;2022-12-07T02:21:51;3.90;99.90
3406;DHT22;10008;48.682;9.016;2022-12-07T02:30:07;4.00;99.90
3406;DHT22;10008;48.682;9.016;2022-12-07T02:35:38;4.00;99.90
3406;DHT22;10008;48.682;9.016;2022-12-07T02:40:54;4.00;99.90
3406;DHT22;10008;48.682;9.016;2022-12-07T02:43:30;4.00;99.90
3406;DHT22;10008;48.682;9.016;2022-12-07T02:46:07;4.00;99.90
3406;DHT22;10008;48.682;9.016;2022-12-07T02:48:34;4.00;99.90
3406;DHT22;10008;48.682;9.016;2022-12-07T02:51:00;4.00;99.90
3406;DHT22;10008;48.682;9.016;2022-12-07T02:53:34;3.90;99.90
3406;DHT22;10008;48.682;9.016;2022-12-07T02:56:39;4.00;99.90
3406;DHT22;10008;48.682;9.016;2022-12-07T03:10:19;3.80;99.90
3406;DHT22;10008;48.682;9.016;2022-12-07T03:18:24;4.10;99.90
3406;DHT22;10008;48.682;9.016;2022-12-07T03:20:54;3.60;99.90
3406;DHT22;10008;48.682;9.016;2022-12-07T03:23:23;3.60;99.90
3406;DHT22;10008;48.682;9.016;2022-12-07T03:25:58;3.70;99.90
3406;DHT22;10008;48.682;9.016;2022-12-07T03:28:28;4.20;99.90
3406;DHT22;10008;48.682;9.016;2022-12-07T03:31:45;3.70;99.90
3406;DHT22;10008;48.682;9.016;2022-12-07T03:34:17;3.70;99.90
3406;DHT22;10008;48.682;9.016;2022-12-07T03:36:53;3.80;99.90
3406;DHT22;10008;48.682;9.016;2022-12-07T03:39:32;3.90;99.90
3406;DHT22;10008;48.682;9.016;2022-12-07T03:42:00;3.60;99.90
3406;DHT22;10008;48.682;9.016;2022-12-07T03:44:27;4.80;99.90
3406;DHT22;10008;48.682;9.016;2022-12-07T03:54:55;3.70;99.90
3406;DHT22;10008;48.682;9.016;2022-12-07T03:57:24;3.70;99.90
3406;DHT22;10008;48.682;9.016;2022-12-07T03:59:51;3.60;99.90
3406;DHT22;10008;48.682;9.016;2022-12-07T04:02:19;3.70;99.90
3406;DHT22;10008;48.682;9.016;2022-12-07T04:04:46;3.70;99.90
3406;DHT22;10008;48.682;9.016;2022-12-07T04:07:12;3.70;99.90
3406;DHT22;10008;48.682;9.016;2022-12-07T04:09:38;3.70;99.90
3406;DHT22;10008;48.682;9.016;2022-12-07T04:12:04;3.70;99.90
3406;DHT22;10008;48.682;9.016;2022-12-07T04:14:30;3.70;99.90
3406;DHT22;10008;48.682;9.016;2022-12-07T04:16:57;3.60;99.90
3406;DHT22;10008;48.682;9.016;2022-12-07T04:19:26;4.90;99.90
3406;DHT22;10008;48.682;9.016;2022-12-07T04:21:52;3.60;99.90
3406;DHT22;10008;48.682;9.016;2022-12-07T04:24:18;5.10;99.90
3406;DHT22;10008;48.682;9.016;2022-12-07T04:26:44;5.00;99.90
3406;DHT22;10008;48.682;9.016;2022-12-07T04:29:10;3.40;99.90
3406;DHT22;10008;48.682;9.016;2022-12-07T04:31:36;3.90;99.90
3406;DHT22;10008;48.682;9.016;2022-12-07T04:34:02;4.50;99.90
3406;DHT22;10008;48.682;9.016;2022-12-07T04:36:28;3.50;99.90
3406;DHT22;10008;48.682;9.016;2022-12-07T04:38:54;3.50;99.90
3406;DHT22;10008;48.682;9.016;2022-12-07T04:41:21;3.50;99.90
3406;DHT22;10008;48.682;9.016;2022-12-07T04:43:56;3.40;99.90
3406;DHT22;10008;48.682;9.016;2022-12-07T04:46:24;3.40;99.90
3406;DHT22;10008;48.682;9.016;2022-12-07T04:48:50;3.40;99.90
3406;DHT22;10008;48.682;9.016;2022-12-07T04:51:20;3.30;99.90
3406;DHT22;10008;48.682;9.016;2022-12-07T04:53:46;3.30;99.90
3406;DHT22;10008;48.682;9.016;2022-12-07T04:56:14;4.70;99.90
3406;DHT22;10008;48.682;9.016;2022-12-07T04:58:41;3.30;99.90
3406;DHT22;10008;48.682;9.016;2022-12-07T05:01:07;3.30;99.90
3406;DHT22;10008;48.682;9.016;2022-12-07T05:03:33;3.30;99.90
3406;DHT22;10008;48.682;9.016;2022-12-07T05:05:58;3.30;99.90
3406;DHT22;10008;48.682;9.016;2022-12-07T05:08:24;3.30;99.90
3406;DHT22;10008;48.682;9.016;2022-12-07T05:10:50;4.30;99.90
3406;DHT22;10008;48.682;9.016;2022-12-07T05:13:15;4.10;99.90
3406;DHT22;10008;48.682;9.016;2022-12-07T05:15:41;2.90;99.90
3406;DHT22;10008;48.682;9.016;2022-12-07T05:18:10;4.20;99.90
3406;DHT22;10008;48.682;9.016;2022-12-07T05:20:38;3.50;99.90
3406;DHT22;10008;48.682;9.016;2022-12-07T05:23:04;2.80;99.90
3406;DHT22;10008;48.682;9.016;2022-12-07T05:25:30;2.80;99.90
3406;DHT22;10008;48.682;9.016;2022-12-07T05:27:56;3.50;99.90
3406;DHT22;10008;48.682;9.016;2022-12-07T05:30:23;2.80;99.90
3406;DHT22;10008;48.682;9.016;2022-12-07T05:32:50;2.70;99.90
3406;DHT22;10008;48.682;9.016;2022-12-07T05:35:16;2.60;99.90
3406;DHT22;10008;48.682;9.016;2022-12-07T05:37:42;2.60;99.90
3406;DHT22;10008;48.682;9.016;2022-12-07T05:40:08;3.80;99.90
3406;DHT22;10008;48.682;9.016;2022-12-07T05:42:34;2.50;99.90
3406;DHT22;10008;48.682;9.016;2022-12-07T05:45:00;3.90;99.90
3406;DHT22;10008;48.682;9.016;2022-12-07T05:47:26;3.60;99.90
3406;DHT22;10008;48.682;9.016;2022-12-07T05:49:52;2.40;99.90
3406;DHT22;10008;48.682;9.016;2022-12-07T05:52:18;3.40;99.90
3406;DHT22;10008;48.682;9.016;2022-12-07T05:54:44;2.90;99.90
3406;DHT22;10008;48.682;9.016;2022-12-07T05:57:09;2.30;99.90
3406;DHT22;10008;48.682;9.016;2022-12-07T05:59:35;2.20;99.90
3406;DHT22;10008;48.682;9.016;2022-12-07T06:02:03;2.60;99.90
3406;DHT22;10008;48.682;9.016;2022-12-07T06:04:32;2.20;99.90
3406;DHT22;10008;48.682;9.016;2022-12-07T06:06:58;2.50;99.90
3406;DHT22;10008;48.682;9.016;2022-12-07T06:09:26;2.30;99.90
3406;DHT22;10008;48.682;9.016;2022-12-07T06:11:53;2.10;99.90
3406;DHT22;10008;48.682;9.016;2022-12-07T06:14:37;3.00;99.90
3406;DHT22;10008;48.682;9.016;2022-12-07T06:17:03;2.20;99.90
3406;DHT22;10008;48.682;9.016;2022-12-07T06:19:29;2.20;99.90
3406;DHT22;10008;48.682;9.016;2022-12-07T06:21:55;2.20;99.90
3406;DHT22;10008;48.682;9.016;2022-12-07T06:24:21;3.90;99.90
3406;DHT22;10008;48.682;9.016;2022-12-07T06:26:46;2.30;99.90
3406;DHT22;10008;48.682;9.016;2022-12-07T06:29:13;2.20;99.90
3406;DHT22;10008;48.682;9.016;2022-12-07T06:31:39;2.50;99.90
3406;DHT22;10008;48.682;9.016;2022-12-07T06:34:16;2.30;99.90
3406;DHT22;10008;48.682;9.016;2022-12-07T06:36:42;2.20;99.90
3406;DHT22;10008;48.682;9.016;2022-12-07T06:39:08;2.20;99.90
3406;DHT22;10008;48.682;9.016;2022-12-07T06:41:36;2.20;99.90
3406;DHT22;10008;48.682;9.016;2022-12-07T06:44:03;2.30;99.90
3406;DHT22;10008;48.682;9.016;2022-12-07T06:46:29;2.20;99.90
3406;DHT22;10008;48.682;9.016;2022-12-07T06:48:54;3.10;99.90
3406;DHT22;10008;48.682;9.016;2022-12-07T06:51:20;2.30;99.90
3406;DHT22;10008;48.682;9.016;2022-12-07T06:53:46;2.30;99.90
3406;DHT22;10008;48.682;9.016;2022-12-07T06:56:12;2.30;99.90
3406;DHT22;10008;48.682;9.016;2022-12-07T06:58:38;3.50;99.90
3406;DHT22;10008;48.682;9.016;2022-12-07T07:01:12;3.40;99.90
3406;DHT22;10008;48.682;9.016;2022-12-07T07:03:38;3.10;99.90
3406;DHT22;10008;48.682;9.016;2022-12-07T07:06:05;2.40;99.90
3406;DHT22;10008;48.682;9.016;2022-12-07T07:08:31;1.70;99.90
3406;DHT22;10008;48.682;9.016;2022-12-07T07:10:57;2.40;99.90
3406;DHT22;10008;48.682;9.016;2022-12-07T07:13:23;3.20;99.90
3406;DHT22;10008;48.682;9.016;2022-12-07T07:15:48;3.30;99.90
3406;DHT22;10008;48.682;9.016;2022-12-07T07:18:14;2.30;99.90
3406;DHT22;10008;48.682;9.016;2022-12-07T07:20:40;2.30;99.90
3406;DHT22;10008;48.682;9.016;2022-12-07T07:23:06;2.40;99.90
3406;DHT22;10008;48.682;9.016;2022-12-07T07:25:32;2.40;99.90
3406;DHT22;10008;48.682;9.016;2022-12-07T07:27:59;2.90;99.90
3406;DHT22;10008;48.682;9.016;2022-12-07T07:30:25;2.60;99.90
3406;DHT22;10008;48.682;9.016;2022-12-07T07:32:55;2.60;99.90
3406;DHT22;10008;48.682;9.016;2022-12-07T07:35:21;2.60;99.90
3406;DHT22;10008;48.682;9.016;2022-12-07T07:37:47;2.90;99.90
3406;DHT22;10008;48.682;9.016;2022-12-07T07:40:12;3.50;99.90
3406;DHT22;10008;48.682;9.016;2022-12-07T07:42:38;2.50;99.90
3406;DHT22;10008;48.682;9.016;2022-12-07T07:45:04;3.10;99.90
3406;DHT22;10008;48.682;9.016;2022-12-07T07:47:30;2.50;99.90
3406;DHT22;10008;48.682;9.016;2022-12-07T07:49:56;3.40;99.90
3406;DHT22;10008;48.682;9.016;2022-12-07T07:52:22;2.60;99.90
3406;DHT22;10008;48.682;9.016;2022-12-07T07:54:48;2.70;99.90
3406;DHT22;10008;48.682;9.016;2022-12-07T07:57:15;2.70;99.90
3406;DHT22;10008;48.682;9.016;2022-12-07T07:59:41;2.80;99.90
3406;DHT22;10008;48.682;9.016;2022-12-07T08:02:13;2.90;99.90
3406;DHT22;10008;48.682;9.016;2022-12-07T08:04:39;3.00;99.90
3406;DHT22;10008;48.682;9.016;2022-12-07T08:07:05;3.10;99.90
3406;DHT22;10008;48.682;9.016;2022-12-07T08:09:31;3.20;99.90
3406;DHT22;10008;48.682;9.016;2022-12-07T08:11:57;3.80;99.90
3406;DHT22;10008;48.682;9.016;2022-12-07T08:14:24;3.10;99.90
3406;DHT22;10008;48.682;9.016;2022-12-07T08:16:50;3.20;99.90
3406;DHT22;10008;48.682;9.016;2022-12-07T08:19:15;3.20;99.90
3406;DHT22;10008;48.682;9.016;2022-12-07T08:21:41;3.20;99.90
3406;DHT22;10008;48.682;9.016;2022-12-07T08:24:07;3.80;99.90
3406;DHT22;10008;48.682;9.016;2022-12-07T08:26:33;3.30;99.90
3406;DHT22;10008;48.682;9.016;2022-12-07T08:28:59;3.30;99.90
3406;DHT22;10008;48.682;9.016;2022-12-07T08:31:25;3.70;99.90
3406;DHT22;10008;48.682;9.016;2022-12-07T08:33:53;3.40;99.90
3406;DHT22;10008;48.682;9.016;2022-12-07T08:36:19;3.40;99.90
3406;DHT22;10008;48.682;9.016;2022-12-07T08:38:45;4.70;99.90
3406;DHT22;10008;48.682;9.016;2022-12-07T08:41:11;3.60;99.90
3406;DHT22;10008;48.682;9.016;2022-12-07T08:43:37;4.40;99.90
3406;DHT22;10008;48.682;9.016;2022-12-07T08:49:08;3.70;99.90
3406;DHT22;10008;48.682;9.016;2022-12-07T08:51:36;3.80;99.90
3406;DHT22;10008;48.682;9.016;2022-12-07T08:54:05;3.80;99.90
3406;DHT22;10008;48.682;9.016;2022-12-07T08:56:33;4.00;99.90
3406;DHT22;10008;48.682;9.016;2022-12-07T08:58:59;4.10;99.90
3406;DHT22;10008;48.682;9.016;2022-12-07T09:01:25;4.80;99.90
3406;DHT22;10008;48.682;9.016;2022-12-07T09:03:51;4.40;99.90
3406;DHT22;10008;48.682;9.016;2022-12-07T09:06:17;4.30;99.90
3406;DHT22;10008;48.682;9.016;2022-12-07T09:08:46;4.30;99.90
3406;DHT22;10008;48.682;9.016;2022-12-07T09:11:12;4.30;99.90
3406;DHT22;10008;48.682;9.016;2022-12-07T09:13:38;4.10;99.90
3406;DHT22;10008;48.682;9.016;2022-12-07T09:16:04;4.10;99.90
3406;DHT22;10008;48.682;9.016;2022-12-07T09:18:30;4.10;99.90
3406;DHT22;10008;48.682;9.016;2022-12-07T09:20:56;4.20;99.90
3406;DHT22;10008;48.682;9.016;2022-12-07T09:23:22;4.20;99.90
3406;DHT22;10008;48.682;9.016;2022-12-07T09:25:48;4.30;99.90
3406;DHT22;10008;48.682;9.016;2022-12-07T09:28:14;4.30;99.90
3406;DHT22;10008;48.682;9.016;2022-12-07T09:30:46;4.40;99.90
3406;DHT22;10008;48.682;9.016;2022-12-07T09:33:12;4.50;99.90
3406;DHT22;10008;48.682;9.016;2022-12-07T09:35:38;4.50;99.90
3406;DHT22;10008;48.682;9.016;2022-12-07T09:38:04;4.40;99.90
3406;DHT22;10008;48.682;9.016;2022-12-07T09:40:29;4.50;99.90
3406;DHT22;10008;48.682;9.016;2022-12-07T09:42:55;4.60;99.90
3406;DHT22;10008;48.682;9.016;2022-12-07T09:45:33;4.70;99.90
3406;DHT22;10008;48.682;9.016;2022-12-07T09:48:00;4.70;99.90
3406;DHT22;10008;48.682;9.016;2022-12-07T09:50:28;5.00;99.90
3406;DHT22;10008;48.682;9.016;2022-12-07T09:53:04;4.60;99.90
3406;DHT22;10008;48.682;9.016;2022-12-07T09:55:41;4.80;99.90
3406;DHT22;10008;48.682;9.016;2022-12-07T09:58:28;4.90;99.90
3406;DHT22;10008;48.682;9.016;2022-12-07T10:03:35;5.30;99.90
3406;DHT22;10008;48.682;9.016;2022-12-07T10:06:01;5.30;99.90
3406;DHT22;10008;48.682;9.016;2022-12-07T10:08:27;5.20;99.90
3406;DHT22;10008;48.682;9.016;2022-12-07T10:10:55;5.20;99.90
3406;DHT22;10008;48.682;9.016;2022-12-07T10:13:43;5.30;99.90
3406;DHT22;10008;48.682;9.016;2022-12-07T10:19:20;5.40;99.90
3406;DHT22;10008;48.682;9.016;2022-12-07T10:22:13;5.30;99.90
3406;DHT22;10008;48.682;9.016;2022-12-07T10:24:41;5.40;99.90
3406;DHT22;10008;48.682;9.016;2022-12-07T10:27:19;5.60;99.90
3406;DHT22;10008;48.682;9.016;2022-12-07T10:29:52;5.30;99.90
3406;DHT22;10008;48.682;9.016;2022-12-07T10:34:44;5.50;99.90
3406;DHT22;10008;48.682;9.016;2022-12-07T10:39:51;5.40;99.90
3406;DHT22;10008;48.682;9.016;2022-12-07T10:42:21;5.20;99.90
3406;DHT22;10008;48.682;9.016;2022-12-07T10:44:48;5.00;99.90
3406;DHT22;10008;48.682;9.016;2022-12-07T11:00:56;5.30;99.90
3406;DHT22;10008;48.682;9.016;2022-12-07T11:06:23;5.20;99.90
3406;DHT22;10008;48.682;9.016;2022-12-07T11:12:00;5.10;99.90
3406;DHT22;10008;48.682;9.016;2022-12-07T11:14:40;5.10;99.90
3406;DHT22;10008;48.682;9.016;2022-12-07T11:17:23;5.10;99.90
3406;DHT22;10008;48.682;9.016;2022-12-07T11:28:22;5.10;99.90
3406;DHT22;10008;48.682;9.016;2022-12-07T11:31:22;5.10;99.90
3406;DHT22;10008;48.682;9.016;2022-12-07T11:34:08;5.20;99.90
3406;DHT22;10008;48.682;9.016;2022-12-07T11:36:45;5.20;99.90
3406;DHT22;10008;48.682;9.016;2022-12-07T11:41:51;5.20;99.90
3406;DHT22;10008;48.682;9.016;2022-12-07T11:47:06;5.50;99.90
3406;DHT22;10008;48.682;9.016;2022-12-07T11:52:20;5.50;99.90
3406;DHT22;10008;48.682;9.016;2022-12-07T11:54:50;5.50;99.90
3406;DHT22;10008;48.682;9.016;2022-12-07T11:57:24;5.50;99.90
3406;DHT22;10008;48.682;9.016;2022-12-07T12:00:00;5.50;99.90
3406;DHT22;10008;48.682;9.016;2022-12-07T12:02:43;5.40;99.90
3406;DHT22;10008;48.682;9.016;2022-12-07T12:05:22;5.50;99.90
3406;DHT22;10008;48.682;9.016;2022-12-07T12:18:51;5.10;99.90
3406;DHT22;10008;48.682;9.016;2022-12-07T12:21:25;5.10;99.90
3406;DHT22;10008;48.682;9.016;2022-12-07T12:24:15;5.10;99.90
3406;DHT22;10008;48.682;9.016;2022-12-07T12:26:52;5.10;99.90
3406;DHT22;10008;48.682;9.016;2022-12-07T12:29:41;5.10;99.90
3406;DHT22;10008;48.682;9.016;2022-12-07T12:32:17;5.00;99.90
3406;DHT22;10008;48.682;9.016;2022-12-07T12:42:52;5.10;99.90
3406;DHT22;10008;48.682;9.016;2022-12-07T12:47:56;5.20;99.90
3406;DHT22;10008;48.682;9.016;2022-12-07T12:50:37;5.10;99.90
3406;DHT22;10008;48.682;9.016;2022-12-07T12:53:21;5.20;99.90
3406;DHT22;10008;48.682;9.016;2022-12-07T13:00:47;5.30;99.90
3406;DHT22;10008;48.682;9.016;2022-12-07T13:03:30;5.30;99.90
3406;DHT22;10008;48.682;9.016;2022-12-07T13:09:32;5.30;99.90
3406;DHT22;10008;48.682;9.016;2022-12-07T13:12:05;5.20;99.90
3406;DHT22;10008;48.682;9.016;2022-12-07T13:20:04;5.10;99.90
3406;DHT22;10008;48.682;9.016;2022-12-07T13:27:41;5.50;99.90
3406;DHT22;10008;48.682;9.016;2022-12-07T13:30:18;5.50;99.90
3406;DHT22;10008;48.682;9.016;2022-12-07T13:32:52;5.40;99.90
3406;DHT22;10008;48.682;9.016;2022-12-07T13:37:53;5.60;99.90
3406;DHT22;10008;48.682;9.016;2022-12-07T13:40:22;5.50;99.90
3406;DHT22;10008;48.682;9.016;2022-12-07T13:42:57;5.50;99.90
3406;DHT22;10008;48.682;9.016;2022-12-07T13:45:29;5.50;99.90
3406;DHT22;10008;48.682;9.016;2022-12-07T13:48:32;5.50;99.90
3406;DHT22;10008;48.682;9.016;2022-12-07T13:51:01;5.50;99.90
3406;DHT22;10008;48.682;9.016;2022-12-07T13:53:27;5.60;99.90
3406;DHT22;10008;48.682;9.016;2022-12-07T13:55:57;5.70;99.90
3406;DHT22;10008;48.682;9.016;2022-12-07T13:58:24;5.70;99.90
3406;DHT22;10008;48.682;9.016;2022-12-07T14:00:50;5.60;99.90
3406;DHT22;10008;48.682;9.016;2022-12-07T14:05:43;5.50;99.90
3406;DHT22;10008;48.682;9.016;2022-12-07T14:10:41;5.40;99.90
3406;DHT22;10008;48.682;9.016;2022-12-07T14:13:39;5.40;99.90
3406;DHT22;10008;48.682;9.016;2022-12-07T14:16:29;5.40;99.90
3406;DHT22;10008;48.682;9.016;2022-12-07T14:18:58;5.40;99.90
3406;DHT22;10008;48.682;9.016;2022-12-07T14:21:26;5.30;99.90
3406;DHT22;10008;48.682;9.016;2022-12-07T14:24:15;5.30;99.90
3406;DHT22;10008;48.682;9.016;2022-12-07T14:26:42;5.40;99.90
3406;DHT22;10008;48.682;9.016;2022-12-07T14:29:32;5.30;99.90
3406;DHT22;10008;48.682;9.016;2022-12-07T14:32:28;5.70;99.90
3406;DHT22;10008;48.682;9.016;2022-12-07T14:35:11;5.20;99.90
3406;DHT22;10008;48.682;9.016;2022-12-07T14:37:39;5.20;99.90
3406;DHT22;10008;48.682;9.016;2022-12-07T14:40:05;5.10;99.90
3406;DHT22;10008;48.682;9.016;2022-12-07T14:42:32;5.10;99.90
3406;DHT22;10008;48.682;9.016;2022-12-07T14:44:58;5.10;99.90
3406;DHT22;10008;48.682;9.016;2022-12-07T14:47:25;5.10;99.90
3406;DHT22;10008;48.682;9.016;2022-12-07T14:49:52;5.00;99.90
3406;DHT22;10008;48.682;9.016;2022-12-07T14:52:23;5.00;99.90
3406;DHT22;10008;48.682;9.016;2022-12-07T14:54:50;5.00;99.90
3406;DHT22;10008;48.682;9.016;2022-12-07T14:57:16;5.00;99.90
3406;DHT22;10008;48.682;9.016;2022-12-07T14:59:42;5.10;99.90
3406;DHT22;10008;48.682;9.016;2022-12-07T15:02:11;5.00;99.90
3406;DHT22;10008;48.682;9.016;2022-12-07T15:04:37;4.90;99.90
3406;DHT22;10008;48.682;9.016;2022-12-07T15:07:04;5.00;99.90
3406;DHT22;10008;48.682;9.016;2022-12-07T15:09:30;5.10;99.90
3406;DHT22;10008;48.682;9.016;2022-12-07T15:11:56;5.00;99.90
3406;DHT22;10008;48.682;9.016;2022-12-07T15:14:22;5.00;99.90
3406;DHT22;10008;48.682;9.016;2022-12-07T15:16:48;4.80;99.90
3406;DHT22;10008;48.682;9.016;2022-12-07T15:19:22;6.10;99.90
3406;DHT22;10008;48.682;9.016;2022-12-07T15:21:51;4.80;99.90
3406;DHT22;10008;48.682;9.016;2022-12-07T15:24:17;6.10;99.90
3406;DHT22;10008;48.682;9.016;2022-12-07T15:26:42;4.80;99.90
3406;DHT22;10008;48.682;9.016;2022-12-07T15:29:09;4.70;99.90
3406;DHT22;10008;48.682;9.016;2022-12-07T15:31:35;4.70;99.90
3406;DHT22;10008;48.682;9.016;2022-12-07T15:34:01;4.80;99.90
3406;DHT22;10008;48.682;9.016;2022-12-07T15:36:32;5.60;99.90
3406;DHT22;10008;48.682;9.016;2022-12-07T15:38:58;4.70;99.90
3406;DHT22;10008;48.682;9.016;2022-12-07T15:41:24;5.00;99.90
3406;DHT22;10008;48.682;9.016;2022-12-07T15:43:50;4.60;99.90
3406;DHT22;10008;48.682;9.016;2022-12-07T15:46:39;4.90;99.90
3406;DHT22;10008;48.682;9.016;2022-12-07T15:49:12;4.50;99.90
3406;DHT22;10008;48.682;9.016;2022-12-07T15:51:38;4.50;99.90
3406;DHT22;10008;48.682;9.016;2022-12-07T15:54:04;4.40;99.90
3406;DHT22;10008;48.682;9.016;2022-12-07T15:56:30;4.30;99.90
3406;DHT22;10008;48.682;9.016;2022-12-07T15:58:56;4.40;99.90
3406;DHT22;10008;48.682;9.016;2022-12-07T16:01:22;4.30;99.90
3406;DHT22;10008;48.682;9.016;2022-12-07T16:03:48;4.20;99.90
3406;DHT22;10008;48.682;9.016;2022-12-07T16:06:16;4.30;99.90
3406;DHT22;10008;48.682;9.016;2022-12-07T16:08:44;4.30;99.90
3406;DHT22;10008;48.682;9.016;2022-12-07T16:11:10;4.30;99.90
3406;DHT22;10008;48.682;9.016;2022-12-07T16:13:36;4.30;99.90
3406;DHT22;10008;48.682;9.016;2022-12-07T16:16:03;4.20;99.90
3406;DHT22;10008;48.682;9.016;2022-12-07T16:18:29;4.20;99.90
3406;DHT22;10008;48.682;9.016;2022-12-07T16:20:55;4.30;99.90
3406;DHT22;10008;48.682;9.016;2022-12-07T16:23:21;4.80;99.90
3406;DHT22;10008;48.682;9.016;2022-12-07T16:25:47;4.40;99.90
3406;DHT22;10008;48.682;9.016;2022-12-07T16:28:12;4.30;99.90
3406;DHT22;10008;48.682;9.016;2022-12-07T16:30:38;4.30;99.90
3406;DHT22;10008;48.682;9.016;2022-12-07T16:33:04;4.30;99.90
3406;DHT22;10008;48.682;9.016;2022-12-07T16:35:29;4.30;99.90
3406;DHT22;10008;48.682;9.016;2022-12-07T16:37:55;4.30;99.90
3406;DHT22;10008;48.682;9.016;2022-12-07T16:40:21;4.30;99.90
3406;DHT22;10008;48.682;9.016;2022-12-07T16:42:47;4.20;99.90
3406;DHT22;10008;48.682;9.016;2022-12-07T16:45:12;4.20;99.90
3406;DHT22;10008;48.682;9.016;2022-12-07T16:47:39;4.10;99.90
3406;DHT22;10008;48.682;9.016;2022-12-07T16:50:06;4.10;99.90
3406;DHT22;10008;48.682;9.016;2022-12-07T16:52:33;4.10;99.90
3406;DHT22;10008;48.682;9.016;2022-12-07T16:54:59;3.90;99.90
3406;DHT22;10008;48.682;9.016;2022-12-07T16:57:24;3.80;99.90
3406;DHT22;10008;48.682;9.016;2022-12-07T16:59:51;4.30;99.90
3406;DHT22;10008;48.682;9.016;2022-12-07T17:02:18;3.90;99.90
3406;DHT22;10008;48.682;9.016;2022-12-07T17:04:43;3.80;99.90
3406;DHT22;10008;48.682;9.016;2022-12-07T17:07:10;3.80;99.90
3406;DHT22;10008;48.682;9.016;2022-12-07T17:09:36;3.80;99.90
3406;DHT22;10008;48.682;9.016;2022-12-07T17:12:02;3.80;99.90
3406;DHT22;10008;48.682;9.016;2022-12-07T17:14:28;3.70;99.90
3406;DHT22;10008;48.682;9.016;2022-12-07T17:17:12;3.70;99.90
3406;DHT22;10008;48.682;9.016;2022-12-07T17:19:38;3.70;99.90
3406;DHT22;10008;48.682;9.016;2022-12-07T17:22:04;3.70;99.90
3406;DHT22;10008;48.682;9.016;2022-12-07T17:24:30;3.70;99.90
3406;DHT22;10008;48.682;9.016;2022-12-07T17:26:56;3.70;99.90
3406;DHT22;10008;48.682;9.016;2022-12-07T17:29:22;3.60;99.90
3406;DHT22;10008;48.682;9.016;2022-12-07T17:31:48;3.60;99.90
3406;DHT22;10008;48.682;9.016;2022-12-07T17:34:15;3.50;99.90
3406;DHT22;10008;48.682;9.016;2022-12-07T17:36:41;3.50;99.90
3406;DHT22;10008;48.682;9.016;2022-12-07T17:39:13;3.50;99.90
3406;DHT22;10008;48.682;9.016;2022-12-07T17:41:39;3.50;99.90
3406;DHT22;10008;48.682;9.016;2022-12-07T17:44:24;4.20;99.90
3406;DHT22;10008;48.682;9.016;2022-12-07T17:46:52;3.50;99.90
3406;DHT22;10008;48.682;9.016;2022-12-07T17:49:25;4.30;99.90
3406;DHT22;10008;48.682;9.016;2022-12-07T17:51:51;3.80;99.90
3406;DHT22;10008;48.682;9.016;2022-12-07T17:54:35;3.50;99.90
3406;DHT22;10008;48.682;9.016;2022-12-07T17:57:01;3.50;99.90
3406;DHT22;10008;48.682;9.016;2022-12-07T17:59:27;3.50;99.90
3406;DHT22;10008;48.682;9.016;2022-12-07T18:01:52;3.50;99.90
3406;DHT22;10008;48.682;9.016;2022-12-07T18:04:18;4.20;99.90
3406;DHT22;10008;48.682;9.016;2022-12-07T18:06:44;3.60;99.90
3406;DHT22;10008;48.682;9.016;2022-12-07T18:09:10;5.00;99.90
3406;DHT22;10008;48.682;9.016;2022-12-07T18:11:36;3.60;99.90
3406;DHT22;10008;48.682;9.016;2022-12-07T18:14:03;3.60;99.90
3406;DHT22;10008;48.682;9.016;2022-12-07T18:16:30;3.70;99.90
3406;DHT22;10008;48.682;9.016;2022-12-07T18:19:02;3.70;99.90
3406;DHT22;10008;48.682;9.016;2022-12-07T18:21:29;4.00;99.90
3406;DHT22;10008;48.682;9.016;2022-12-07T18:23:57;3.70;99.90
3406;DHT22;10008;48.682;9.016;2022-12-07T18:26:24;4.00;99.90
3406;DHT22;10008;48.682;9.016;2022-12-07T18:28:51;3.90;99.90
3406;DHT22;10008;48.682;9.016;2022-12-07T18:31:17;3.50;99.90
3406;DHT22;10008;48.682;9.016;2022-12-07T18:33:45;3.40;99.90
3406;DHT22;10008;48.682;9.016;2022-12-07T18:36:12;3.30;99.90